createdAt,value
2018-08-22T00:00:36.989Z,19.70
2018-08-22T00:03:05.569Z,19.70
2018-08-22T00:05:34.164Z,19.70
2018-08-22T00:08:02.882Z,19.60
2018-08-22T00:10:31.426Z,19.70
2018-08-22T00:12:59.984Z,19.70
2018-08-22T00:15:28.554Z,19.60
2018-08-22T00:17:57.064Z,19.60
2018-08-22T00:20:25.609Z,19.50
2018-08-22T00:22:54.114Z,19.50
2018-08-22T00:25:22.671Z,19.50
2018-08-22T00:27:51.173Z,19.50
2018-08-22T00:30:19.721Z,19.40
2018-08-22T00:32:48.327Z,19.40
2018-08-22T00:35:16.833Z,19.40
2018-08-22T00:37:45.777Z,19.40
2018-08-22T00:40:14.340Z,19.40
2018-08-22T00:42:42.870Z,19.40
2018-08-22T00:45:11.435Z,19.30
2018-08-22T00:47:39.938Z,19.30
2018-08-22T00:50:08.459Z,19.30
2018-08-22T00:52:37.001Z,19.40
2018-08-22T00:55:05.529Z,19.30
2018-08-22T00:57:34.057Z,19.10
2018-08-22T01:00:02.618Z,19.10
2018-08-22T01:02:31.122Z,19.10
2018-08-22T01:04:59.658Z,19.10
2018-08-22T01:07:28.163Z,19.10
2018-08-22T01:09:56.745Z,19.10
2018-08-22T01:12:25.254Z,19.10
2018-08-22T01:14:53.779Z,19.10
2018-08-22T01:17:22.368Z,19.10
2018-08-22T01:19:50.886Z,19.10
2018-08-22T01:22:19.447Z,19.00
2018-08-22T01:24:47.980Z,19.10
2018-08-22T01:27:21.409Z,19.00
2018-08-22T01:29:51.610Z,19.00
2018-08-22T01:32:20.387Z,18.90
2018-08-22T01:34:48.948Z,18.90
2018-08-22T01:37:17.536Z,18.80
2018-08-22T01:39:46.546Z,18.80
2018-08-22T01:42:15.067Z,18.80
2018-08-22T01:44:43.787Z,18.80
2018-08-22T01:47:12.311Z,18.70
2018-08-22T01:49:40.813Z,18.70
2018-08-22T01:52:09.413Z,18.70
2018-08-22T01:54:37.945Z,18.70
2018-08-22T01:57:06.451Z,18.70
2018-08-22T01:59:34.998Z,18.70
2018-08-22T02:02:03.560Z,18.70
2018-08-22T02:04:32.127Z,18.70
2018-08-22T02:07:00.682Z,18.60
2018-08-22T02:09:29.213Z,18.60
2018-08-22T02:11:57.717Z,18.60
2018-08-22T02:14:26.303Z,18.60
2018-08-22T02:16:54.919Z,18.50
2018-08-22T02:19:23.458Z,18.50
2018-08-22T02:21:52.262Z,18.50
2018-08-22T02:24:20.798Z,18.50
2018-08-22T02:26:49.286Z,18.50
2018-08-22T02:29:17.832Z,18.40
2018-08-22T02:31:46.412Z,18.40
2018-08-22T02:34:14.999Z,18.30
2018-08-22T02:36:43.513Z,18.30
2018-08-22T02:39:12.066Z,18.30
2018-08-22T02:41:40.600Z,18.30
2018-08-22T02:44:09.155Z,18.30
2018-08-22T02:46:37.767Z,18.30
2018-08-22T02:49:06.322Z,18.30
2018-08-22T02:51:34.837Z,18.30
2018-08-22T02:54:03.431Z,18.10
2018-08-22T02:56:31.972Z,18.10
2018-08-22T02:59:00.529Z,18.00
2018-08-22T03:01:29.110Z,18.00
2018-08-22T03:03:57.637Z,18.00
2018-08-22T03:06:26.178Z,18.00
2018-08-22T03:08:54.759Z,18.00
2018-08-22T03:11:23.295Z,18.00
2018-08-22T03:13:51.817Z,17.90
2018-08-22T03:16:20.394Z,17.80
2018-08-22T03:18:48.930Z,17.80
2018-08-22T03:21:17.456Z,17.90
2018-08-22T03:23:45.998Z,17.80
2018-08-22T03:26:14.589Z,17.80
2018-08-22T03:28:43.517Z,17.70
2018-08-22T03:31:12.052Z,17.70
2018-08-22T03:33:40.593Z,17.70
2018-08-22T03:36:09.110Z,17.70
2018-08-22T03:38:37.661Z,17.70
2018-08-22T03:41:06.227Z,17.60
2018-08-22T03:43:34.765Z,17.60
2018-08-22T03:46:03.290Z,17.60
2018-08-22T03:48:31.818Z,17.60
2018-08-22T03:51:00.478Z,17.60
2018-08-22T03:53:29.078Z,17.60
2018-08-22T03:55:57.595Z,17.60
2018-08-22T03:58:26.126Z,17.50
2018-08-22T04:00:54.689Z,17.50
2018-08-22T04:03:23.211Z,17.50
2018-08-22T04:05:51.711Z,17.50
2018-08-22T04:08:20.308Z,17.50
2018-08-22T04:10:48.830Z,17.40
2018-08-22T04:13:17.382Z,17.40
2018-08-22T04:15:45.938Z,17.40
2018-08-22T04:18:14.474Z,17.40
2018-08-22T04:20:43.047Z,17.40
2018-08-22T04:23:11.638Z,17.30
2018-08-22T04:25:40.135Z,17.30
2018-08-22T04:28:08.657Z,17.30
2018-08-22T04:30:37.239Z,17.30
2018-08-22T04:33:06.046Z,17.30
2018-08-22T04:35:34.658Z,17.30
2018-08-22T04:38:03.251Z,17.30
2018-08-22T04:40:31.799Z,17.20
2018-08-22T04:43:00.369Z,17.20
2018-08-22T04:45:28.922Z,17.20
2018-08-22T04:47:57.435Z,17.20
2018-08-22T04:50:25.979Z,17.20
2018-08-22T04:52:54.513Z,17.30
2018-08-22T04:55:23.026Z,17.30
2018-08-22T04:57:51.569Z,17.40
2018-08-22T05:00:20.162Z,17.40
2018-08-22T05:02:48.709Z,17.30
2018-08-22T05:05:17.223Z,17.40
2018-08-22T05:07:45.791Z,17.50
2018-08-22T05:10:14.343Z,17.60
2018-08-22T05:12:42.913Z,17.60
2018-08-22T05:15:11.483Z,17.70
2018-08-22T05:17:40.054Z,17.90
2018-08-22T05:20:08.606Z,18.10
2018-08-22T05:22:37.214Z,18.30
2018-08-22T05:25:05.871Z,18.60
2018-08-22T05:27:35.162Z,19.00
2018-08-22T05:30:03.814Z,19.30
2018-08-22T05:32:32.375Z,19.50
2018-08-22T05:35:00.946Z,20.00
2018-08-22T05:37:29.539Z,20.40
2018-08-22T05:39:58.094Z,20.50
2018-08-22T05:42:26.658Z,20.70
2018-08-22T05:44:55.243Z,21.20
2018-08-22T05:47:23.798Z,21.50
2018-08-22T05:49:52.367Z,21.90
2018-08-22T05:52:21.002Z,22.20
2018-08-22T05:54:49.574Z,22.40
2018-08-22T05:57:18.099Z,23.00
2018-08-22T05:59:46.648Z,23.30
2018-08-22T06:02:15.219Z,23.70
2018-08-22T06:04:43.907Z,24.20
2018-08-22T06:07:12.466Z,24.40
2018-08-22T06:09:41.007Z,24.90
2018-08-22T06:12:09.566Z,25.40
2018-08-22T06:14:38.116Z,25.60
2018-08-22T06:17:06.682Z,26.10
2018-08-22T06:19:35.211Z,26.40
2018-08-22T06:22:03.798Z,26.70
2018-08-22T06:24:32.352Z,26.90
2018-08-22T06:27:00.944Z,27.10
2018-08-22T06:29:29.497Z,27.40
2018-08-22T06:31:58.080Z,27.60
2018-08-22T06:34:26.632Z,27.60
2018-08-22T06:36:55.242Z,27.70
2018-08-22T06:39:23.771Z,27.80
2018-08-22T06:41:52.346Z,28.20
2018-08-22T06:44:21.023Z,28.90
2018-08-22T06:46:49.524Z,29.50
2018-08-22T06:49:18.075Z,30.30
2018-08-22T06:51:46.640Z,30.90
2018-08-22T06:54:15.148Z,31.50
2018-08-22T06:56:43.786Z,32.00
2018-08-22T06:59:12.335Z,32.30
2018-08-22T07:01:40.906Z,32.70
2018-08-22T07:04:09.479Z,33.10
2018-08-22T07:06:38.045Z,33.50
2018-08-22T07:09:09.001Z,33.70
2018-08-22T07:11:37.784Z,34.00
2018-08-22T07:14:06.555Z,34.40
2018-08-22T07:16:35.053Z,34.90
2018-08-22T07:19:03.600Z,35.40
2018-08-22T07:21:32.209Z,35.70
2018-08-22T07:24:00.744Z,36.40
2018-08-22T07:26:29.330Z,37.00
2018-08-22T07:28:57.947Z,37.60
2018-08-22T07:31:26.499Z,38.00
2018-08-22T07:33:55.038Z,38.90
2018-08-22T07:36:23.605Z,39.50
2018-08-22T07:38:52.119Z,40.10
2018-08-22T07:41:20.687Z,40.60
2018-08-22T07:43:49.303Z,40.90
2018-08-22T07:46:17.874Z,41.50
2018-08-22T07:48:46.459Z,42.10
2018-08-22T07:51:15.098Z,42.40
2018-08-22T07:53:43.606Z,43.00
2018-08-22T07:56:12.172Z,43.30
2018-08-22T07:58:40.726Z,43.80
2018-08-22T08:01:09.319Z,44.40
2018-08-22T08:03:37.876Z,44.90
2018-08-22T08:06:06.686Z,45.20
2018-08-22T08:08:35.244Z,45.80
2018-08-22T08:11:03.882Z,45.90
2018-08-22T08:13:32.391Z,46.00
2018-08-22T08:16:00.911Z,46.30
2018-08-22T08:18:29.421Z,46.80
2018-08-22T08:20:57.988Z,47.30
2018-08-22T08:23:26.592Z,47.50
2018-08-22T08:25:55.202Z,47.90
2018-08-22T08:28:23.739Z,48.40
2018-08-22T08:30:52.282Z,48.60
2018-08-22T08:33:20.822Z,48.60
2018-08-22T08:35:49.425Z,49.10
2018-08-22T08:38:17.874Z,49.50
2018-08-22T08:40:46.457Z,49.80
2018-08-22T08:43:15.003Z,50.20
2018-08-22T08:45:43.595Z,50.00
2018-08-22T08:48:12.160Z,50.30
2018-08-22T08:50:40.763Z,50.20
2018-08-22T08:53:09.315Z,50.60
2018-08-22T08:58:53.977Z,50.90
2018-08-22T09:01:22.543Z,50.00
2018-08-22T09:03:51.044Z,49.50
2018-08-22T09:06:19.608Z,50.60
2018-08-22T09:08:48.164Z,50.70
2018-08-22T09:11:16.708Z,50.50
2018-08-22T09:14:03.631Z,50.80
2018-08-22T09:16:32.194Z,51.00
2018-08-22T09:19:00.725Z,51.20
2018-08-22T09:21:29.309Z,50.20
2018-08-22T09:23:57.842Z,49.60
2018-08-22T09:26:26.397Z,50.20
2018-08-22T09:28:54.950Z,50.20
2018-08-22T09:31:23.518Z,49.10
2018-08-22T09:33:52.270Z,49.90
2018-08-22T09:36:20.763Z,50.40
2018-08-22T09:38:49.285Z,50.70
2018-08-22T09:41:17.829Z,51.20
2018-08-22T09:43:46.394Z,51.30
2018-08-22T09:46:14.939Z,51.20
2018-08-22T09:48:43.494Z,51.10
2018-08-22T09:51:12.060Z,51.40
2018-08-22T09:53:40.654Z,50.70
2018-08-22T09:56:09.622Z,50.00
2018-08-22T09:58:38.164Z,50.70
2018-08-22T10:01:12.112Z,51.70
2018-08-22T10:03:52.098Z,52.30
2018-08-22T10:06:30.429Z,52.40
2018-08-22T10:09:00.570Z,52.10
2018-08-22T10:11:29.133Z,51.50
2018-08-22T10:13:58.375Z,51.70
2018-08-22T10:16:27.969Z,51.40
2018-08-22T10:18:56.894Z,51.50
2018-08-22T10:21:26.223Z,52.10
2018-08-22T10:23:54.791Z,52.40
2018-08-22T10:26:23.670Z,52.20
2018-08-22T10:28:52.727Z,51.80
2018-08-22T10:31:21.318Z,51.50
2018-08-22T10:33:49.854Z,51.40
2018-08-22T10:36:18.364Z,51.60
2018-08-22T10:38:46.909Z,50.80
2018-08-22T10:41:15.504Z,49.90
2018-08-22T10:43:44.051Z,50.30
2018-08-22T10:46:12.635Z,50.40
2018-08-22T10:48:41.178Z,49.20
2018-08-22T10:51:09.734Z,48.80
2018-08-22T10:53:38.390Z,48.60
2018-08-22T10:56:06.923Z,47.60
2018-08-22T10:58:35.442Z,47.60
2018-08-22T11:01:04.074Z,47.30
2018-08-22T11:03:32.586Z,44.50
2018-08-22T11:06:01.489Z,42.10
2018-08-22T11:08:30.022Z,40.80
2018-08-22T11:10:58.560Z,40.50
2018-08-22T11:13:27.143Z,40.00
2018-08-22T11:15:55.886Z,39.60
2018-08-22T11:18:24.335Z,39.00
2018-08-22T11:20:52.918Z,38.60
2018-08-22T11:23:33.251Z,38.30
2018-08-22T11:26:13.695Z,38.00
2018-08-22T11:28:53.256Z,37.60
2018-08-22T11:31:33.046Z,37.20
2018-08-22T11:34:12.675Z,37.30
2018-08-22T11:36:42.078Z,37.50
2018-08-22T11:39:10.594Z,37.30
2018-08-22T11:41:39.136Z,37.30
2018-08-22T11:44:07.662Z,37.40
2018-08-22T11:46:36.249Z,37.20
2018-08-22T11:49:04.818Z,37.40
2018-08-22T11:51:33.394Z,37.50
2018-08-22T11:54:01.942Z,37.20
2018-08-22T11:56:30.527Z,37.40
2018-08-22T11:58:59.083Z,37.20
2018-08-22T12:01:27.670Z,36.80
2018-08-22T12:03:56.222Z,36.10
2018-08-22T12:06:24.794Z,35.70
2018-08-22T12:08:53.383Z,36.00
2018-08-22T12:11:21.934Z,36.30
2018-08-22T12:13:50.511Z,36.50
2018-08-22T12:16:19.082Z,36.40
2018-08-22T12:18:47.595Z,36.40
2018-08-22T12:21:16.230Z,36.40
2018-08-22T12:23:44.785Z,36.20
2018-08-22T12:26:13.355Z,36.30
2018-08-22T12:28:41.938Z,36.20
2018-08-22T12:31:10.528Z,36.30
2018-08-22T12:33:39.021Z,36.60
2018-08-22T12:36:07.655Z,36.80
2018-08-22T12:38:36.205Z,37.10
2018-08-22T12:41:04.825Z,37.20
2018-08-22T12:43:33.387Z,37.20
2018-08-22T12:46:01.919Z,37.00
2018-08-22T12:48:30.506Z,36.70
2018-08-22T12:51:13.512Z,36.10
2018-08-22T12:53:42.054Z,36.40
2018-08-22T12:56:10.604Z,36.60
2018-08-22T12:58:39.174Z,36.60
2018-08-22T13:01:07.934Z,36.60
2018-08-22T13:03:43.143Z,36.50
2018-08-22T13:06:11.739Z,36.40
2018-08-22T13:08:40.290Z,36.50
2018-08-22T13:11:08.915Z,36.60
2018-08-22T13:13:37.448Z,36.70
2018-08-22T13:16:05.992Z,36.90
2018-08-22T13:18:34.524Z,37.20
2018-08-22T13:21:03.079Z,37.00
2018-08-22T13:23:31.608Z,36.00
2018-08-22T13:26:00.154Z,35.50
2018-08-22T13:28:28.687Z,35.40
2018-08-22T13:30:57.196Z,35.20
2018-08-22T13:33:25.756Z,35.50
2018-08-22T13:35:54.311Z,35.50
2018-08-22T13:38:22.880Z,35.40
2018-08-22T13:40:51.451Z,35.30
2018-08-22T13:43:20.847Z,35.00
2018-08-22T13:45:49.366Z,35.00
2018-08-22T13:48:17.903Z,35.90
2018-08-22T13:50:46.453Z,36.60
2018-08-22T13:53:15.022Z,37.10
2018-08-22T13:55:43.573Z,37.00
2018-08-22T13:58:12.183Z,36.70
2018-08-22T14:00:40.732Z,36.50
2018-08-22T14:03:09.283Z,36.30
2018-08-22T14:05:37.843Z,35.90
2018-08-22T14:08:06.389Z,36.00
2018-08-22T14:10:35.019Z,36.20
2018-08-22T14:13:03.615Z,36.50
2018-08-22T14:15:32.243Z,36.70
2018-08-22T14:18:00.805Z,36.80
2018-08-22T14:20:29.576Z,36.70
2018-08-22T14:22:58.070Z,36.30
2018-08-22T14:25:26.771Z,36.40
2018-08-22T14:27:55.376Z,36.30
2018-08-22T14:30:23.961Z,36.10
2018-08-22T14:32:53.198Z,35.90
2018-08-22T14:35:21.777Z,36.10
2018-08-22T14:37:50.312Z,36.20
2018-08-22T14:40:18.883Z,36.30
2018-08-22T14:42:47.492Z,36.10
2018-08-22T14:45:16.053Z,36.00
2018-08-22T14:47:44.567Z,35.80
2018-08-22T14:50:13.121Z,35.80
2018-08-22T14:52:41.738Z,35.70
2018-08-22T14:55:10.261Z,35.60
2018-08-22T14:57:38.833Z,35.60
2018-08-22T15:00:08.021Z,35.70
2018-08-22T15:02:36.611Z,35.80
2018-08-22T15:05:05.302Z,35.80
2018-08-22T15:07:33.826Z,35.50
2018-08-22T15:10:02.373Z,35.30
2018-08-22T15:12:30.982Z,34.80
2018-08-22T15:14:59.544Z,34.60
2018-08-22T15:17:28.078Z,34.20
2018-08-22T15:19:56.746Z,34.00
2018-08-22T15:22:25.307Z,33.80
2018-08-22T15:24:53.939Z,33.70
2018-08-22T15:27:22.492Z,33.50
2018-08-22T15:29:51.114Z,33.30
2018-08-22T15:32:19.680Z,33.10
2018-08-22T15:34:56.202Z,32.90
2018-08-22T15:37:25.405Z,32.80
2018-08-22T15:39:53.937Z,32.60
2018-08-22T15:42:22.444Z,32.50
2018-08-22T15:44:51.054Z,32.20
2018-08-22T15:47:19.651Z,31.80
2018-08-22T15:49:48.139Z,31.40
2018-08-22T15:52:16.677Z,30.80
2018-08-22T15:54:59.687Z,30.30
2018-08-22T15:57:33.376Z,29.80
2018-08-22T16:00:01.933Z,29.30
2018-08-22T16:02:30.469Z,28.80
2018-08-22T16:04:58.983Z,28.70
2018-08-22T16:07:27.570Z,28.60
2018-08-22T16:09:56.103Z,28.60
2018-08-22T16:12:24.661Z,28.60
2018-08-22T16:14:53.242Z,28.50
2018-08-22T16:17:21.841Z,28.30
2018-08-22T16:19:50.399Z,28.20
2018-08-22T16:22:21.904Z,28.10
2018-08-22T16:24:50.552Z,28.00
2018-08-22T16:27:19.086Z,28.00
2018-08-22T16:29:47.632Z,28.10
2018-08-22T16:32:16.178Z,28.10
2018-08-22T16:34:44.743Z,28.10
2018-08-22T16:37:13.296Z,28.00
2018-08-22T16:39:44.270Z,27.90
2018-08-22T16:42:12.891Z,27.80
2018-08-22T16:44:41.855Z,27.70
2018-08-22T16:47:10.387Z,27.60
2018-08-22T16:49:38.891Z,27.60
2018-08-22T16:52:07.465Z,27.60
2018-08-22T16:54:36.035Z,27.60
2018-08-22T16:57:04.555Z,27.60
2018-08-22T16:59:33.098Z,27.60
2018-08-22T17:02:01.769Z,27.50
2018-08-22T17:04:36.991Z,27.30
2018-08-22T17:07:10.838Z,27.10
2018-08-22T17:09:39.382Z,26.50
2018-08-22T17:12:07.907Z,26.20
2018-08-22T17:14:36.476Z,25.90
2018-08-22T17:17:05.066Z,25.60
2018-08-22T17:19:33.617Z,25.50
2018-08-22T17:22:02.187Z,25.40
2018-08-22T17:24:30.774Z,25.40
2018-08-22T17:26:59.326Z,25.40
2018-08-22T17:29:27.950Z,25.30
2018-08-22T17:32:04.872Z,25.10
2018-08-22T17:34:33.846Z,24.70
2018-08-22T17:37:07.075Z,24.60
2018-08-22T17:39:35.639Z,24.30
2018-08-22T17:42:04.207Z,24.00
2018-08-22T17:44:32.774Z,23.70
2018-08-22T17:47:01.343Z,23.70
2018-08-22T17:49:29.896Z,23.60
2018-08-22T17:52:15.295Z,23.60
2018-08-22T17:54:43.807Z,23.60
2018-08-22T17:57:22.585Z,23.60
2018-08-22T17:59:51.123Z,23.50
2018-08-22T18:02:19.690Z,23.50
2018-08-22T18:04:56.010Z,23.30
2018-08-22T18:07:24.551Z,23.30
2018-08-22T18:09:53.114Z,23.30
2018-08-22T18:12:25.322Z,23.40
2018-08-22T18:14:56.059Z,23.40
2018-08-22T18:17:39.211Z,23.30
2018-08-22T18:20:07.764Z,23.40
2018-08-22T18:22:37.876Z,23.50
2018-08-22T18:25:06.989Z,23.50
2018-08-22T18:27:35.542Z,23.50
2018-08-22T18:30:04.143Z,23.60
2018-08-22T18:32:32.703Z,23.40
2018-08-22T18:35:05.221Z,23.30
2018-08-22T18:37:33.803Z,23.10
2018-08-22T18:40:23.084Z,23.00
2018-08-22T18:42:53.046Z,23.00
2018-08-22T18:45:22.144Z,22.80
2018-08-22T18:47:50.771Z,22.80
2018-08-22T18:50:19.613Z,22.70
2018-08-22T18:52:51.820Z,22.60
2018-08-22T18:55:22.683Z,22.40
2018-08-22T18:57:51.455Z,22.30
2018-08-22T19:00:20.004Z,22.20
2018-08-22T19:02:57.886Z,22.20
2018-08-22T19:05:31.332Z,22.10
2018-08-22T19:08:05.362Z,22.00
2018-08-22T19:10:35.971Z,21.90
2018-08-22T19:13:09.781Z,21.80
2018-08-22T19:15:38.420Z,21.70
2018-08-22T19:18:08.374Z,21.70
2018-08-22T19:20:37.176Z,21.60
2018-08-22T19:23:05.713Z,21.60
2018-08-22T19:25:34.452Z,21.60
2018-08-22T19:28:03.479Z,21.60
2018-08-22T19:30:34.699Z,21.60
2018-08-22T19:33:03.306Z,21.60
2018-08-22T19:35:31.818Z,21.70
2018-08-22T19:38:05.679Z,21.70
2018-08-22T19:40:34.642Z,21.70
2018-08-22T19:43:03.270Z,21.50
2018-08-22T19:45:32.315Z,21.40
2018-08-22T19:48:00.881Z,21.30
2018-08-22T19:50:30.311Z,21.30
2018-08-22T19:52:58.890Z,21.10
2018-08-22T19:55:27.555Z,21.10
2018-08-22T19:57:56.153Z,21.10
2018-08-22T20:00:39.152Z,21.00
2018-08-22T20:03:07.715Z,21.00
2018-08-22T20:05:50.627Z,21.10
2018-08-22T20:08:22.648Z,21.10
2018-08-22T20:10:51.207Z,21.00
2018-08-22T20:13:19.775Z,20.90
2018-08-22T20:15:48.336Z,20.90
2018-08-22T20:18:18.663Z,20.80
2018-08-22T20:20:47.189Z,20.80
2018-08-22T20:23:15.782Z,20.70
2018-08-22T20:25:44.278Z,20.70
2018-08-22T20:28:12.830Z,20.60
2018-08-22T20:30:41.430Z,20.60
2018-08-22T20:33:10.658Z,20.50
2018-08-22T20:35:41.463Z,20.60
2018-08-22T20:38:11.254Z,20.70
2018-08-22T20:40:39.835Z,20.70
2018-08-22T20:43:19.275Z,20.70
2018-08-22T20:45:47.878Z,20.60
2018-08-22T20:48:18.842Z,20.40
2018-08-22T20:50:47.458Z,20.40
2018-08-22T20:53:18.017Z,20.30
2018-08-22T20:55:46.694Z,20.30
2018-08-22T20:58:20.490Z,20.30
2018-08-22T21:00:49.006Z,20.30
2018-08-22T21:03:18.404Z,20.30
2018-08-22T21:05:46.963Z,20.30
2018-08-22T21:08:15.497Z,20.20
2018-08-22T21:10:44.055Z,20.30
2018-08-22T21:13:18.922Z,20.30
2018-08-22T21:15:47.551Z,20.30
2018-08-22T21:18:16.106Z,20.20
2018-08-22T21:20:44.670Z,20.20
2018-08-22T21:23:13.203Z,20.20
2018-08-22T21:25:43.595Z,20.10
2018-08-22T21:28:12.602Z,20.00
2018-08-22T21:30:45.353Z,19.90
2018-08-22T21:33:13.963Z,19.80
2018-08-22T21:35:42.515Z,19.70
2018-08-22T21:38:16.246Z,19.70
2018-08-22T21:40:44.776Z,19.70
2018-08-22T21:43:13.721Z,19.70
2018-08-22T21:45:42.281Z,19.70
2018-08-22T21:48:18.306Z,19.60
2018-08-22T21:50:46.939Z,19.60
2018-08-22T21:53:15.542Z,19.70
2018-08-22T21:55:45.709Z,19.70
2018-08-22T21:58:14.538Z,19.70
2018-08-22T22:00:43.102Z,19.70
2018-08-22T22:03:12.671Z,19.70
2018-08-22T22:05:48.087Z,19.70
2018-08-22T22:08:16.638Z,19.70
2018-08-22T22:10:45.217Z,19.70
2018-08-22T22:13:13.797Z,19.70
2018-08-22T22:15:46.405Z,19.70
2018-08-22T22:18:15.012Z,19.70
2018-08-22T22:20:47.720Z,19.60
2018-08-22T22:23:16.384Z,19.60
2018-08-22T22:25:44.916Z,19.50
2018-08-22T22:28:13.480Z,19.40
2018-08-22T22:30:42.033Z,19.40
2018-08-22T22:33:10.578Z,19.30
2018-08-22T22:35:39.390Z,19.30
2018-08-22T22:38:08.763Z,19.40
2018-08-22T22:40:37.543Z,19.40
2018-08-22T22:43:10.839Z,19.30
2018-08-22T22:45:39.452Z,19.30
2018-08-22T22:48:08.104Z,19.30
2018-08-22T22:50:36.737Z,19.30
2018-08-22T22:53:05.670Z,19.30
2018-08-22T22:55:34.312Z,19.30
2018-08-22T22:58:04.178Z,19.30
2018-08-22T23:00:32.709Z,19.30
2018-08-22T23:03:06.167Z,19.20
2018-08-22T23:05:34.725Z,19.20
2018-08-22T23:08:03.494Z,19.20
2018-08-22T23:10:32.050Z,19.10
2018-08-22T23:13:00.581Z,19.10
2018-08-22T23:15:30.300Z,19.20
2018-08-22T23:18:01.174Z,19.20
2018-08-22T23:20:37.283Z,19.20
2018-08-22T23:23:16.618Z,19.20
2018-08-22T23:25:45.326Z,19.20
2018-08-22T23:28:13.851Z,19.20
2018-08-22T23:30:42.479Z,19.20
2018-08-22T23:33:10.971Z,19.30
2018-08-22T23:35:39.510Z,19.30
2018-08-22T23:38:16.569Z,19.40
2018-08-22T23:40:46.511Z,19.40
2018-08-22T23:43:15.067Z,19.50
2018-08-22T23:45:48.813Z,19.60
2018-08-22T23:48:21.535Z,19.60
2018-08-22T23:50:56.536Z,19.60
2018-08-22T23:53:29.119Z,19.60
2018-08-22T23:56:11.869Z,19.60
2018-08-22T23:58:41.725Z,19.50
